Impacts TAF Board INFO
FOR SITUATIONAL AWARENESS. NOT TO BE USED FOR FLIGHT PLANNING PURPOSES.
IDs:

KCVG - Cincinnati Intl, KY, US

Issued at 2102 UTC 25 May 2018
Updated at 2215 UTC 25 May 2018
Potential Impact None Slight Moderate High
Time<<26/11Z 26/12Z 26/13Z 26/14Z 26/15Z 26/16Z 26/17Z 26/18Z 26/19Z 26/20Z 26/21Z 26/22Z 26/23Z>>
Type PRVL PRVL PRVL PRVL PRVL PRVL PRVL PRVL PRVL PRVL PRVL PRVL PRVL
VIS >6 >6 >6 >6 >6 >6 >6 >6 >6 >6 >6 >6 >6
CIG 35 35 35 35 35 35 22 22 35 35 35 35 35
Cover BKN BKN BKN BKN BKN BKN BKN BKN BKN BKN BKN BKN BKN
FltCat VFR VFR VFR VFR VFR VFR MVFR MVFR VFR VFR VFR VFR VFR
WX VCSH VCSH VCSH VCSH VCSH VCSH VCTS VCTS VCTS VCTS VCTS VCTS VCSH
WDir 200 200 200 200 200 200 210 210 230 230 230 230 250
WSpd 4 4 4 4 4 4 10 10 11 11 11 11 7
WGst -- -- -- -- -- -- -- -- -- -- -- -- --

Raw TAF
KCVG 252102Z 2521/2624 21005KT P6SM FEW250
  FM260600 18003KT P6SM FEW050 BKN100
  FM261100 20004KT P6SM VCSH BKN035 BKN100
  FM261700 21010KT P6SM VCTS BKN022CB
  FM261900 23011KT P6SM VCTS BKN035CB
  FM262300 25007KT P6SM VCSH BKN035


METAR Board
Radar Display
Forecast Discussion

FOR SITUATIONAL AWARENESS. NOT TO BE USED FOR FLIGHT PLANNING PURPOSES.